sensor_id;sensor_type;location;lat;lon;timestamp;P1;durP1;ratioP1;P2;durP2;ratioP2
16593;SDS011;8410;52.532;13.336;2023-09-07T00:01:05;7.88;;;6.97;;
16593;SDS011;8410;52.532;13.336;2023-09-07T00:03:35;9.35;;;7.75;;
16593;SDS011;8410;52.532;13.336;2023-09-07T00:06:07;8.20;;;7.18;;
16593;SDS011;8410;52.532;13.336;2023-09-07T00:08:35;6.53;;;5.93;;
16593;SDS011;8410;52.532;13.336;2023-09-07T00:11:03;11.02;;;8.52;;
16593;SDS011;8410;52.532;13.336;2023-09-07T00:13:31;9.20;;;6.90;;
16593;SDS011;8410;52.532;13.336;2023-09-07T00:16:00;7.55;;;6.30;;
16593;SDS011;8410;52.532;13.336;2023-09-07T00:18:28;11.48;;;10.20;;
16593;SDS011;8410;52.532;13.336;2023-09-07T00:20:57;9.02;;;7.97;;
16593;SDS011;8410;52.532;13.336;2023-09-07T00:23:26;9.70;;;8.20;;
16593;SDS011;8410;52.532;13.336;2023-09-07T00:25:53;9.23;;;7.60;;
16593;SDS011;8410;52.532;13.336;2023-09-07T00:28:21;8.13;;;7.15;;
16593;SDS011;8410;52.532;13.336;2023-09-07T00:30:49;8.10;;;7.15;;
16593;SDS011;8410;52.532;13.336;2023-09-07T00:33:18;13.55;;;7.38;;
16593;SDS011;8410;52.532;13.336;2023-09-07T00:36:12;7.35;;;6.65;;
16593;SDS011;8410;52.532;13.336;2023-09-07T00:38:39;8.10;;;7.30;;
16593;SDS011;8410;52.532;13.336;2023-09-07T00:41:08;7.80;;;7.10;;
16593;SDS011;8410;52.532;13.336;2023-09-07T00:43:35;7.80;;;7.00;;
16593;SDS011;8410;52.532;13.336;2023-09-07T00:46:03;9.25;;;7.35;;
16593;SDS011;8410;52.532;13.336;2023-09-07T00:48:30;8.82;;;7.00;;
16593;SDS011;8410;52.532;13.336;2023-09-07T00:50:58;8.25;;;7.05;;
16593;SDS011;8410;52.532;13.336;2023-09-07T00:53:28;10.25;;;9.07;;
16593;SDS011;8410;52.532;13.336;2023-09-07T00:55:56;10.10;;;7.60;;
16593;SDS011;8410;52.532;13.336;2023-09-07T00:58:24;22.08;;;7.43;;
16593;SDS011;8410;52.532;13.336;2023-09-07T01:00:52;7.85;;;7.05;;
16593;SDS011;8410;52.532;13.336;2023-09-07T01:03:19;11.38;;;7.72;;
16593;SDS011;8410;52.532;13.336;2023-09-07T01:05:51;8.23;;;7.38;;
16593;SDS011;8410;52.532;13.336;2023-09-07T01:08:23;10.05;;;7.93;;
16593;SDS011;8410;52.532;13.336;2023-09-07T01:10:54;11.00;;;9.10;;
16593;SDS011;8410;52.532;13.336;2023-09-07T01:13:22;12.43;;;8.70;;
16593;SDS011;8410;52.532;13.336;2023-09-07T01:15:49;10.05;;;9.05;;
16593;SDS011;8410;52.532;13.336;2023-09-07T01:18:17;9.80;;;8.40;;
16593;SDS011;8410;52.532;13.336;2023-09-07T01:20:51;8.23;;;7.43;;
16593;SDS011;8410;52.532;13.336;2023-09-07T01:23:21;9.68;;;8.35;;
16593;SDS011;8410;52.532;13.336;2023-09-07T01:25:49;8.68;;;7.88;;
16593;SDS011;8410;52.532;13.336;2023-09-07T01:28:18;8.77;;;7.95;;
16593;SDS011;8410;52.532;13.336;2023-09-07T01:30:47;9.55;;;7.80;;
16593;SDS011;8410;52.532;13.336;2023-09-07T01:33:15;8.38;;;7.68;;
16593;SDS011;8410;52.532;13.336;2023-09-07T01:35:42;9.50;;;8.45;;
16593;SDS011;8410;52.532;13.336;2023-09-07T01:38:11;8.40;;;7.60;;
16593;SDS011;8410;52.532;13.336;2023-09-07T01:40:39;10.13;;;8.50;;
16593;SDS011;8410;52.532;13.336;2023-09-07T01:43:07;8.23;;;7.40;;
16593;SDS011;8410;52.532;13.336;2023-09-07T01:45:34;8.77;;;7.97;;
16593;SDS011;8410;52.532;13.336;2023-09-07T01:48:02;8.68;;;7.78;;
16593;SDS011;8410;52.532;13.336;2023-09-07T01:50:30;8.57;;;7.78;;
16593;SDS011;8410;52.532;13.336;2023-09-07T01:52:58;8.18;;;7.40;;
16593;SDS011;8410;52.532;13.336;2023-09-07T01:55:26;8.75;;;7.75;;
16593;SDS011;8410;52.532;13.336;2023-09-07T01:57:55;8.20;;;7.40;;
16593;SDS011;8410;52.532;13.336;2023-09-07T02:00:23;7.57;;;6.78;;
16593;SDS011;8410;52.532;13.336;2023-09-07T02:02:50;8.82;;;7.60;;
16593;SDS011;8410;52.532;13.336;2023-09-07T02:05:18;8.20;;;7.40;;
16593;SDS011;8410;52.532;13.336;2023-09-07T02:07:47;8.90;;;7.82;;
16593;SDS011;8410;52.532;13.336;2023-09-07T02:10:16;9.45;;;8.38;;
16593;SDS011;8410;52.532;13.336;2023-09-07T02:12:45;8.55;;;7.10;;
16593;SDS011;8410;52.532;13.336;2023-09-07T02:15:14;9.45;;;8.55;;
16593;SDS011;8410;52.532;13.336;2023-09-07T02:17:42;8.35;;;7.53;;
16593;SDS011;8410;52.532;13.336;2023-09-07T02:20:11;8.27;;;7.43;;
16593;SDS011;8410;52.532;13.336;2023-09-07T02:22:39;9.65;;;7.47;;
16593;SDS011;8410;52.532;13.336;2023-09-07T02:25:06;9.60;;;7.85;;
16593;SDS011;8410;52.532;13.336;2023-09-07T02:27:34;7.47;;;6.45;;
16593;SDS011;8410;52.532;13.336;2023-09-07T02:30:02;8.00;;;7.20;;
16593;SDS011;8410;52.532;13.336;2023-09-07T02:32:32;7.88;;;7.07;;
16593;SDS011;8410;52.532;13.336;2023-09-07T02:34:59;7.78;;;7.00;;
16593;SDS011;8410;52.532;13.336;2023-09-07T02:37:27;8.98;;;7.07;;
16593;SDS011;8410;52.532;13.336;2023-09-07T02:39:54;9.85;;;7.85;;
16593;SDS011;8410;52.532;13.336;2023-09-07T02:42:22;7.82;;;7.13;;
16593;SDS011;8410;52.532;13.336;2023-09-07T02:44:50;7.97;;;6.85;;
16593;SDS011;8410;52.532;13.336;2023-09-07T02:47:18;7.50;;;6.82;;
16593;SDS011;8410;52.532;13.336;2023-09-07T02:49:47;8.40;;;7.68;;
16593;SDS011;8410;52.532;13.336;2023-09-07T02:52:14;9.85;;;8.65;;
16593;SDS011;8410;52.532;13.336;2023-09-07T02:54:42;8.80;;;7.68;;
16593;SDS011;8410;52.532;13.336;2023-09-07T02:57:09;7.60;;;6.90;;
16593;SDS011;8410;52.532;13.336;2023-09-07T02:59:36;7.97;;;7.22;;
16593;SDS011;8410;52.532;13.336;2023-09-07T03:02:04;7.80;;;7.05;;
16593;SDS011;8410;52.532;13.336;2023-09-07T03:04:33;8.52;;;7.78;;
16593;SDS011;8410;52.532;13.336;2023-09-07T03:07:02;9.10;;;6.82;;
16593;SDS011;8410;52.532;13.336;2023-09-07T03:09:29;8.18;;;7.18;;
16593;SDS011;8410;52.532;13.336;2023-09-07T03:11:57;8.48;;;7.53;;
16593;SDS011;8410;52.532;13.336;2023-09-07T03:14:25;8.00;;;7.20;;
16593;SDS011;8410;52.532;13.336;2023-09-07T03:16:52;7.97;;;7.27;;
16593;SDS011;8410;52.532;13.336;2023-09-07T03:19:20;8.82;;;7.88;;
16593;SDS011;8410;52.532;13.336;2023-09-07T03:21:48;8.70;;;7.82;;
16593;SDS011;8410;52.532;13.336;2023-09-07T03:24:17;8.73;;;7.90;;
16593;SDS011;8410;52.532;13.336;2023-09-07T03:26:45;8.73;;;7.25;;
16593;SDS011;8410;52.532;13.336;2023-09-07T03:29:12;9.73;;;7.72;;
16593;SDS011;8410;52.532;13.336;2023-09-07T03:31:40;8.20;;;7.40;;
16593;SDS011;8410;52.532;13.336;2023-09-07T03:34:07;8.00;;;7.30;;
16593;SDS011;8410;52.532;13.336;2023-09-07T03:36:35;7.82;;;7.13;;
16593;SDS011;8410;52.532;13.336;2023-09-07T03:39:03;10.70;;;8.00;;
16593;SDS011;8410;52.532;13.336;2023-09-07T03:41:35;9.43;;;8.25;;
16593;SDS011;8410;52.532;13.336;2023-09-07T03:44:03;11.00;;;8.57;;
16593;SDS011;8410;52.532;13.336;2023-09-07T03:46:30;9.80;;;8.30;;
16593;SDS011;8410;52.532;13.336;2023-09-07T03:48:58;8.77;;;7.83;;
16593;SDS011;8410;52.532;13.336;2023-09-07T03:51:25;7.85;;;7.13;;
16593;SDS011;8410;52.532;13.336;2023-09-07T03:53:53;8.50;;;7.80;;
16593;SDS011;8410;52.532;13.336;2023-09-07T03:56:20;8.40;;;7.47;;
16593;SDS011;8410;52.532;13.336;2023-09-07T03:58:49;8.45;;;7.65;;
16593;SDS011;8410;52.532;13.336;2023-09-07T04:01:17;8.77;;;7.90;;
16593;SDS011;8410;52.532;13.336;2023-09-07T04:03:44;8.85;;;8.02;;
16593;SDS011;8410;52.532;13.336;2023-09-07T04:06:12;9.38;;;8.05;;
16593;SDS011;8410;52.532;13.336;2023-09-07T04:08:40;7.90;;;7.20;;
16593;SDS011;8410;52.532;13.336;2023-09-07T04:11:07;8.23;;;7.43;;
16593;SDS011;8410;52.532;13.336;2023-09-07T04:13:35;8.63;;;7.40;;
16593;SDS011;8410;52.532;13.336;2023-09-07T04:16:04;8.15;;;6.85;;
16593;SDS011;8410;52.532;13.336;2023-09-07T04:18:31;11.93;;;7.53;;
16593;SDS011;8410;52.532;13.336;2023-09-07T04:21:05;10.35;;;8.18;;
16593;SDS011;8410;52.532;13.336;2023-09-07T04:23:33;9.57;;;7.97;;
16593;SDS011;8410;52.532;13.336;2023-09-07T04:26:11;8.27;;;7.47;;
16593;SDS011;8410;52.532;13.336;2023-09-07T04:28:38;10.00;;;7.50;;
16593;SDS011;8410;52.532;13.336;2023-09-07T04:31:07;9.18;;;7.80;;
16593;SDS011;8410;52.532;13.336;2023-09-07T04:33:35;8.63;;;7.73;;
16593;SDS011;8410;52.532;13.336;2023-09-07T04:36:09;9.50;;;8.15;;
16593;SDS011;8410;52.532;13.336;2023-09-07T04:38:36;8.50;;;7.43;;
16593;SDS011;8410;52.532;13.336;2023-09-07T04:41:07;8.73;;;7.82;;
16593;SDS011;8410;52.532;13.336;2023-09-07T04:43:36;8.73;;;7.80;;
16593;SDS011;8410;52.532;13.336;2023-09-07T04:46:08;11.40;;;7.90;;
16593;SDS011;8410;52.532;13.336;2023-09-07T04:48:35;8.27;;;7.47;;
16593;SDS011;8410;52.532;13.336;2023-09-07T04:51:06;9.15;;;8.25;;
16593;SDS011;8410;52.532;13.336;2023-09-07T04:53:35;9.65;;;8.10;;
16593;SDS011;8410;52.532;13.336;2023-09-07T04:56:04;10.05;;;7.43;;
16593;SDS011;8410;52.532;13.336;2023-09-07T04:58:32;8.10;;;7.30;;
16593;SDS011;8410;52.532;13.336;2023-09-07T05:01:03;9.00;;;7.70;;
16593;SDS011;8410;52.532;13.336;2023-09-07T05:03:33;7.72;;;7.03;;
16593;SDS011;8410;52.532;13.336;2023-09-07T05:06:00;8.85;;;7.97;;
16593;SDS011;8410;52.532;13.336;2023-09-07T05:08:29;10.00;;;6.88;;
16593;SDS011;8410;52.532;13.336;2023-09-07T05:10:58;11.07;;;7.72;;
16593;SDS011;8410;52.532;13.336;2023-09-07T05:13:29;8.60;;;7.15;;
16593;SDS011;8410;52.532;13.336;2023-09-07T05:15:58;8.57;;;7.68;;
16593;SDS011;8410;52.532;13.336;2023-09-07T05:18:27;10.20;;;8.23;;
16593;SDS011;8410;52.532;13.336;2023-09-07T05:20:57;10.23;;;7.95;;
16593;SDS011;8410;52.532;13.336;2023-09-07T05:23:24;12.40;;;11.23;;
16593;SDS011;8410;52.532;13.336;2023-09-07T05:25:53;8.40;;;7.65;;
16593;SDS011;8410;52.532;13.336;2023-09-07T05:28:22;8.02;;;7.00;;
16593;SDS011;8410;52.532;13.336;2023-09-07T05:30:50;11.23;;;8.00;;
16593;SDS011;8410;52.532;13.336;2023-09-07T05:33:17;9.52;;;8.15;;
16593;SDS011;8410;52.532;13.336;2023-09-07T05:35:45;9.45;;;7.47;;
16593;SDS011;8410;52.532;13.336;2023-09-07T05:38:14;9.88;;;7.30;;
16593;SDS011;8410;52.532;13.336;2023-09-07T05:40:42;8.82;;;7.57;;
16593;SDS011;8410;52.532;13.336;2023-09-07T05:43:11;10.82;;;7.70;;
16593;SDS011;8410;52.532;13.336;2023-09-07T05:45:39;11.55;;;8.75;;
16593;SDS011;8410;52.532;13.336;2023-09-07T05:48:07;9.60;;;7.55;;
16593;SDS011;8410;52.532;13.336;2023-09-07T05:50:36;8.35;;;7.45;;
16593;SDS011;8410;52.532;13.336;2023-09-07T05:53:05;13.93;;;7.50;;
16593;SDS011;8410;52.532;13.336;2023-09-07T05:55:34;9.68;;;8.15;;
16593;SDS011;8410;52.532;13.336;2023-09-07T05:58:03;8.77;;;7.97;;
16593;SDS011;8410;52.532;13.336;2023-09-07T06:00:32;12.48;;;7.90;;
16593;SDS011;8410;52.532;13.336;2023-09-07T06:03:00;8.73;;;7.75;;
16593;SDS011;8410;52.532;13.336;2023-09-07T06:05:30;9.32;;;7.07;;
16593;SDS011;8410;52.532;13.336;2023-09-07T06:07:57;9.57;;;7.28;;
16593;SDS011;8410;52.532;13.336;2023-09-07T06:10:27;10.63;;;8.00;;
16593;SDS011;8410;52.532;13.336;2023-09-07T06:12:56;11.77;;;7.82;;
16593;SDS011;8410;52.532;13.336;2023-09-07T06:15:26;18.33;;;9.50;;
16593;SDS011;8410;52.532;13.336;2023-09-07T06:17:54;8.60;;;7.63;;
16593;SDS011;8410;52.532;13.336;2023-09-07T06:20:22;10.00;;;7.75;;
16593;SDS011;8410;52.532;13.336;2023-09-07T06:22:50;8.13;;;7.32;;
16593;SDS011;8410;52.532;13.336;2023-09-07T06:25:17;10.60;;;6.93;;
16593;SDS011;8410;52.532;13.336;2023-09-07T06:27:46;10.90;;;6.88;;
16593;SDS011;8410;52.532;13.336;2023-09-07T06:30:15;8.15;;;7.13;;
16593;SDS011;8410;52.532;13.336;2023-09-07T06:32:43;13.88;;;7.65;;
16593;SDS011;8410;52.532;13.336;2023-09-07T06:35:11;8.70;;;6.75;;
16593;SDS011;8410;52.532;13.336;2023-09-07T06:37:38;8.05;;;6.90;;
16593;SDS011;8410;52.532;13.336;2023-09-07T06:40:07;7.18;;;6.47;;
16593;SDS011;8410;52.532;13.336;2023-09-07T06:42:37;7.63;;;6.75;;
16593;SDS011;8410;52.532;13.336;2023-09-07T06:45:05;12.65;;;7.03;;
16593;SDS011;8410;52.532;13.336;2023-09-07T06:47:35;13.13;;;6.63;;
16593;SDS011;8410;52.532;13.336;2023-09-07T06:50:03;11.15;;;6.60;;
16593;SDS011;8410;52.532;13.336;2023-09-07T06:52:32;9.73;;;6.60;;
16593;SDS011;8410;52.532;13.336;2023-09-07T06:54:59;13.75;;;7.65;;
16593;SDS011;8410;52.532;13.336;2023-09-07T06:57:27;10.30;;;6.65;;
16593;SDS011;8410;52.532;13.336;2023-09-07T06:59:55;8.93;;;6.93;;
16593;SDS011;8410;52.532;13.336;2023-09-07T07:02:22;9.60;;;6.72;;
16593;SDS011;8410;52.532;13.336;2023-09-07T07:04:51;9.35;;;6.72;;
16593;SDS011;8410;52.532;13.336;2023-09-07T07:07:19;8.88;;;6.53;;
16593;SDS011;8410;52.532;13.336;2023-09-07T07:09:47;6.68;;;6.07;;
16593;SDS011;8410;52.532;13.336;2023-09-07T07:12:14;10.95;;;6.00;;
16593;SDS011;8410;52.532;13.336;2023-09-07T07:14:42;6.93;;;6.20;;
16593;SDS011;8410;52.532;13.336;2023-09-07T07:17:09;8.77;;;6.40;;
16593;SDS011;8410;52.532;13.336;2023-09-07T07:19:37;8.98;;;6.40;;
16593;SDS011;8410;52.532;13.336;2023-09-07T07:22:06;9.98;;;6.38;;
16593;SDS011;8410;52.532;13.336;2023-09-07T07:24:35;6.20;;;5.60;;
16593;SDS011;8410;52.532;13.336;2023-09-07T07:27:02;7.05;;;6.20;;
16593;SDS011;8410;52.532;13.336;2023-09-07T07:29:30;11.63;;;6.15;;
16593;SDS011;8410;52.532;13.336;2023-09-07T07:31:59;6.28;;;5.47;;
16593;SDS011;8410;52.532;13.336;2023-09-07T07:34:26;6.40;;;5.78;;
16593;SDS011;8410;52.532;13.336;2023-09-07T07:36:54;9.93;;;6.30;;
16593;SDS011;8410;52.532;13.336;2023-09-07T07:39:23;6.88;;;6.05;;
16593;SDS011;8410;52.532;13.336;2023-09-07T07:41:50;8.48;;;6.03;;
16593;SDS011;8410;52.532;13.336;2023-09-07T07:44:18;8.10;;;5.57;;
16593;SDS011;8410;52.532;13.336;2023-09-07T07:46:45;10.18;;;5.18;;
16593;SDS011;8410;52.532;13.336;2023-09-07T07:49:13;8.13;;;5.80;;
16593;SDS011;8410;52.532;13.336;2023-09-07T07:51:40;7.93;;;5.47;;
16593;SDS011;8410;52.532;13.336;2023-09-07T07:54:08;7.32;;;5.55;;
16593;SDS011;8410;52.532;13.336;2023-09-07T07:56:38;7.15;;;5.35;;
16593;SDS011;8410;52.532;13.336;2023-09-07T07:59:06;8.80;;;5.68;;
16593;SDS011;8410;52.532;13.336;2023-09-07T08:01:34;8.00;;;5.45;;
16593;SDS011;8410;52.532;13.336;2023-09-07T08:04:02;6.75;;;5.18;;
16593;SDS011;8410;52.532;13.336;2023-09-07T08:06:31;6.95;;;5.10;;
16593;SDS011;8410;52.532;13.336;2023-09-07T08:08:58;9.60;;;5.22;;
16593;SDS011;8410;52.532;13.336;2023-09-07T08:11:26;6.50;;;5.22;;
16593;SDS011;8410;52.532;13.336;2023-09-07T08:13:55;7.80;;;5.60;;
16593;SDS011;8410;52.532;13.336;2023-09-07T08:16:22;7.07;;;4.88;;
16593;SDS011;8410;52.532;13.336;2023-09-07T08:18:49;5.75;;;5.15;;
16593;SDS011;8410;52.532;13.336;2023-09-07T08:21:17;8.88;;;5.40;;
16593;SDS011;8410;52.532;13.336;2023-09-07T08:23:45;5.63;;;4.53;;
16593;SDS011;8410;52.532;13.336;2023-09-07T08:26:12;7.20;;;5.55;;
16593;SDS011;8410;52.532;13.336;2023-09-07T08:28:41;7.00;;;5.47;;
16593;SDS011;8410;52.532;13.336;2023-09-07T08:31:14;9.30;;;5.57;;
16593;SDS011;8410;52.532;13.336;2023-09-07T08:33:48;6.20;;;5.13;;
16593;SDS011;8410;52.532;13.336;2023-09-07T08:36:17;9.43;;;5.13;;
16593;SDS011;8410;52.532;13.336;2023-09-07T08:38:49;7.43;;;4.80;;
16593;SDS011;8410;52.532;13.336;2023-09-07T08:41:20;6.38;;;4.75;;
16593;SDS011;8410;52.532;13.336;2023-09-07T08:43:49;5.78;;;4.93;;
16593;SDS011;8410;52.532;13.336;2023-09-07T08:46:22;8.30;;;5.28;;
16593;SDS011;8410;52.532;13.336;2023-09-07T08:48:50;10.10;;;5.28;;
16593;SDS011;8410;52.532;13.336;2023-09-07T08:51:18;5.95;;;5.32;;
16593;SDS011;8410;52.532;13.336;2023-09-07T08:53:46;6.05;;;4.88;;
16593;SDS011;8410;52.532;13.336;2023-09-07T08:56:15;5.53;;;5.00;;
16593;SDS011;8410;52.532;13.336;2023-09-07T08:58:44;8.40;;;4.50;;
16593;SDS011;8410;52.532;13.336;2023-09-07T09:01:14;6.60;;;4.88;;
16593;SDS011;8410;52.532;13.336;2023-09-07T09:03:43;5.75;;;4.25;;
16593;SDS011;8410;52.532;13.336;2023-09-07T09:06:11;5.38;;;4.88;;
16593;SDS011;8410;52.532;13.336;2023-09-07T09:08:42;8.27;;;4.57;;
16593;SDS011;8410;52.532;13.336;2023-09-07T09:11:10;8.32;;;5.10;;
16593;SDS011;8410;52.532;13.336;2023-09-07T09:13:39;5.85;;;4.63;;
16593;SDS011;8410;52.532;13.336;2023-09-07T09:16:07;4.93;;;4.30;;
16593;SDS011;8410;52.532;13.336;2023-09-07T09:18:35;5.38;;;4.57;;
16593;SDS011;8410;52.532;13.336;2023-09-07T09:21:05;5.47;;;4.97;;
16593;SDS011;8410;52.532;13.336;2023-09-07T09:23:33;5.30;;;4.80;;
16593;SDS011;8410;52.532;13.336;2023-09-07T09:26:02;5.30;;;4.45;;
16593;SDS011;8410;52.532;13.336;2023-09-07T09:28:31;10.18;;;5.57;;
16593;SDS011;8410;52.532;13.336;2023-09-07T09:31:00;4.85;;;4.45;;
16593;SDS011;8410;52.532;13.336;2023-09-07T09:33:30;10.60;;;5.45;;
16593;SDS011;8410;52.532;13.336;2023-09-07T09:35:57;6.22;;;4.82;;
16593;SDS011;8410;52.532;13.336;2023-09-07T09:38:26;5.57;;;4.90;;
16593;SDS011;8410;52.532;13.336;2023-09-07T09:40:54;6.22;;;4.88;;
16593;SDS011;8410;52.532;13.336;2023-09-07T09:43:22;7.13;;;4.85;;
16593;SDS011;8410;52.532;13.336;2023-09-07T09:45:50;7.30;;;5.10;;
16593;SDS011;8410;52.532;13.336;2023-09-07T09:48:19;6.88;;;4.78;;
16593;SDS011;8410;52.532;13.336;2023-09-07T09:50:48;6.45;;;5.30;;
16593;SDS011;8410;52.532;13.336;2023-09-07T09:53:16;7.18;;;5.10;;
16593;SDS011;8410;52.532;13.336;2023-09-07T09:55:48;6.68;;;5.10;;
16593;SDS011;8410;52.532;13.336;2023-09-07T09:58:16;7.70;;;4.82;;
16593;SDS011;8410;52.532;13.336;2023-09-07T10:00:44;6.63;;;4.93;;
16593;SDS011;8410;52.532;13.336;2023-09-07T10:03:15;7.15;;;4.63;;
16593;SDS011;8410;52.532;13.336;2023-09-07T10:05:50;6.63;;;5.47;;
16593;SDS011;8410;52.532;13.336;2023-09-07T10:08:18;6.82;;;4.47;;
16593;SDS011;8410;52.532;13.336;2023-09-07T10:10:52;7.28;;;4.95;;
16593;SDS011;8410;52.532;13.336;2023-09-07T10:13:28;6.03;;;4.30;;
16593;SDS011;8410;52.532;13.336;2023-09-07T10:16:00;4.40;;;4.00;;
16593;SDS011;8410;52.532;13.336;2023-09-07T10:18:34;8.48;;;4.72;;
16593;SDS011;8410;52.532;13.336;2023-09-07T10:21:02;4.85;;;4.05;;
16593;SDS011;8410;52.532;13.336;2023-09-07T10:23:37;7.30;;;4.78;;
16593;SDS011;8410;52.532;13.336;2023-09-07T10:26:11;5.05;;;4.55;;
16593;SDS011;8410;52.532;13.336;2023-09-07T10:28:40;5.85;;;4.50;;
16593;SDS011;8410;52.532;13.336;2023-09-07T10:31:14;4.63;;;4.20;;
16593;SDS011;8410;52.532;13.336;2023-09-07T10:33:43;5.95;;;4.75;;
16593;SDS011;8410;52.532;13.336;2023-09-07T10:36:20;6.47;;;4.60;;
16593;SDS011;8410;52.532;13.336;2023-09-07T10:38:48;5.35;;;4.15;;
16593;SDS011;8410;52.532;13.336;2023-09-07T10:41:19;4.35;;;3.95;;
16593;SDS011;8410;52.532;13.336;2023-09-07T10:43:47;7.28;;;4.20;;
16593;SDS011;8410;52.532;13.336;2023-09-07T10:46:18;5.43;;;4.40;;
16593;SDS011;8410;52.532;13.336;2023-09-07T10:48:48;4.32;;;3.88;;
16593;SDS011;8410;52.532;13.336;2023-09-07T10:51:17;5.65;;;4.10;;
16593;SDS011;8410;52.532;13.336;2023-09-07T10:53:45;6.97;;;4.13;;
16593;SDS011;8410;52.532;13.336;2023-09-07T10:56:13;5.43;;;4.10;;
16593;SDS011;8410;52.532;13.336;2023-09-07T10:58:42;4.88;;;4.32;;
16593;SDS011;8410;52.532;13.336;2023-09-07T11:01:10;5.40;;;3.83;;
16593;SDS011;8410;52.532;13.336;2023-09-07T11:03:41;3.97;;;3.67;;
16593;SDS011;8410;52.532;13.336;2023-09-07T11:06:09;5.10;;;4.05;;
16593;SDS011;8410;52.532;13.336;2023-09-07T11:08:39;5.00;;;3.85;;
16593;SDS011;8410;52.532;13.336;2023-09-07T11:11:08;6.15;;;3.90;;
16593;SDS011;8410;52.532;13.336;2023-09-07T11:13:36;5.10;;;3.45;;
16593;SDS011;8410;52.532;13.336;2023-09-07T11:16:06;3.60;;;3.22;;
16593;SDS011;8410;52.532;13.336;2023-09-07T11:18:35;5.70;;;3.67;;
16593;SDS011;8410;52.532;13.336;2023-09-07T11:21:03;4.93;;;3.65;;
16593;SDS011;8410;52.532;13.336;2023-09-07T11:23:31;4.20;;;3.80;;
16593;SDS011;8410;52.532;13.336;2023-09-07T11:26:04;5.03;;;3.88;;
16593;SDS011;8410;52.532;13.336;2023-09-07T11:28:32;3.53;;;3.22;;
16593;SDS011;8410;52.532;13.336;2023-09-07T11:31:00;4.03;;;3.65;;
16593;SDS011;8410;52.532;13.336;2023-09-07T11:33:31;4.75;;;3.72;;
16593;SDS011;8410;52.532;13.336;2023-09-07T11:35:59;4.55;;;3.40;;
16593;SDS011;8410;52.532;13.336;2023-09-07T11:38:28;5.15;;;3.63;;
16593;SDS011;8410;52.532;13.336;2023-09-07T11:40:56;4.25;;;3.50;;
16593;SDS011;8410;52.532;13.336;2023-09-07T11:43:23;5.68;;;3.42;;
16593;SDS011;8410;52.532;13.336;2023-09-07T11:45:51;6.63;;;3.95;;
16593;SDS011;8410;52.532;13.336;2023-09-07T11:48:19;3.75;;;3.05;;
16593;SDS011;8410;52.532;13.336;2023-09-07T11:50:47;4.00;;;3.67;;
16593;SDS011;8410;52.532;13.336;2023-09-07T11:53:15;4.97;;;3.30;;
16593;SDS011;8410;52.532;13.336;2023-09-07T11:55:42;4.90;;;3.90;;
16593;SDS011;8410;52.532;13.336;2023-09-07T11:58:10;3.97;;;3.60;;
16593;SDS011;8410;52.532;13.336;2023-09-07T12:00:37;4.03;;;3.10;;
16593;SDS011;8410;52.532;13.336;2023-09-07T12:03:07;4.15;;;3.60;;
16593;SDS011;8410;52.532;13.336;2023-09-07T12:05:34;5.72;;;3.55;;
16593;SDS011;8410;52.532;13.336;2023-09-07T12:08:05;5.38;;;4.00;;
16593;SDS011;8410;52.532;13.336;2023-09-07T12:10:32;5.05;;;4.00;;
16593;SDS011;8410;52.532;13.336;2023-09-07T12:13:00;7.05;;;3.78;;
16593;SDS011;8410;52.532;13.336;2023-09-07T12:15:28;4.18;;;3.40;;
16593;SDS011;8410;52.532;13.336;2023-09-07T12:17:55;4.28;;;3.33;;
16593;SDS011;8410;52.532;13.336;2023-09-07T12:20:24;5.07;;;3.10;;
16593;SDS011;8410;52.532;13.336;2023-09-07T12:22:51;3.70;;;3.40;;
16593;SDS011;8410;52.532;13.336;2023-09-07T12:25:20;4.97;;;3.75;;
16593;SDS011;8410;52.532;13.336;2023-09-07T12:27:48;4.95;;;3.85;;
16593;SDS011;8410;52.532;13.336;2023-09-07T12:30:20;3.80;;;3.45;;
16593;SDS011;8410;52.532;13.336;2023-09-07T12:32:50;5.78;;;3.33;;
16593;SDS011;8410;52.532;13.336;2023-09-07T12:35:18;4.00;;;3.60;;
16593;SDS011;8410;52.532;13.336;2023-09-07T12:37:46;4.47;;;4.07;;
16593;SDS011;8410;52.532;13.336;2023-09-07T12:40:14;4.30;;;3.90;;
16593;SDS011;8410;52.532;13.336;2023-09-07T12:42:43;3.85;;;3.47;;
16593;SDS011;8410;52.532;13.336;2023-09-07T12:45:12;3.65;;;3.03;;
16593;SDS011;8410;52.532;13.336;2023-09-07T12:47:41;4.25;;;3.83;;
16593;SDS011;8410;52.532;13.336;2023-09-07T12:50:08;3.22;;;2.92;;
16593;SDS011;8410;52.532;13.336;2023-09-07T12:52:36;5.00;;;4.38;;
16593;SDS011;8410;52.532;13.336;2023-09-07T12:55:07;4.53;;;4.13;;
16593;SDS011;8410;52.532;13.336;2023-09-07T12:57:35;3.97;;;3.58;;
16593;SDS011;8410;52.532;13.336;2023-09-07T13:00:05;3.90;;;3.33;;
16593;SDS011;8410;52.532;13.336;2023-09-07T13:02:33;5.25;;;3.47;;
16593;SDS011;8410;52.532;13.336;2023-09-07T13:05:01;5.13;;;3.50;;
16593;SDS011;8410;52.532;13.336;2023-09-07T13:07:32;4.88;;;3.40;;
16593;SDS011;8410;52.532;13.336;2023-09-07T13:10:01;4.20;;;3.53;;
16593;SDS011;8410;52.532;13.336;2023-09-07T13:12:30;4.70;;;3.55;;
16593;SDS011;8410;52.532;13.336;2023-09-07T13:14:58;5.88;;;4.00;;
16593;SDS011;8410;52.532;13.336;2023-09-07T13:17:27;5.15;;;4.30;;
16593;SDS011;8410;52.532;13.336;2023-09-07T13:19:54;4.30;;;3.90;;
16593;SDS011;8410;52.532;13.336;2023-09-07T13:22:22;3.75;;;3.38;;
16593;SDS011;8410;52.532;13.336;2023-09-07T13:24:50;4.32;;;3.50;;
16593;SDS011;8410;52.532;13.336;2023-09-07T13:27:17;4.20;;;3.80;;
16593;SDS011;8410;52.532;13.336;2023-09-07T13:29:45;3.75;;;3.40;;
16593;SDS011;8410;52.532;13.336;2023-09-07T13:32:13;6.20;;;4.60;;
16593;SDS011;8410;52.532;13.336;2023-09-07T13:34:41;4.45;;;4.05;;
16593;SDS011;8410;52.532;13.336;2023-09-07T13:37:09;5.07;;;3.97;;
16593;SDS011;8410;52.532;13.336;2023-09-07T13:39:36;4.50;;;3.90;;
16593;SDS011;8410;52.532;13.336;2023-09-07T13:42:04;4.40;;;4.00;;
16593;SDS011;8410;52.532;13.336;2023-09-07T13:44:32;6.05;;;4.25;;
16593;SDS011;8410;52.532;13.336;2023-09-07T13:46:59;7.10;;;4.15;;
16593;SDS011;8410;52.532;13.336;2023-09-07T13:49:27;4.75;;;4.05;;
16593;SDS011;8410;52.532;13.336;2023-09-07T13:51:58;4.40;;;4.00;;
16593;SDS011;8410;52.532;13.336;2023-09-07T13:54:26;4.18;;;3.78;;
16593;SDS011;8410;52.532;13.336;2023-09-07T13:56:56;4.35;;;3.95;;
16593;SDS011;8410;52.532;13.336;2023-09-07T13:59:24;5.20;;;3.92;;
16593;SDS011;8410;52.532;13.336;2023-09-07T14:01:55;4.25;;;3.72;;
16593;SDS011;8410;52.532;13.336;2023-09-07T14:04:22;4.95;;;4.40;;
16593;SDS011;8410;52.532;13.336;2023-09-07T14:06:50;5.13;;;4.07;;
16593;SDS011;8410;52.532;13.336;2023-09-07T14:09:19;6.38;;;3.90;;
16593;SDS011;8410;52.532;13.336;2023-09-07T14:11:49;7.10;;;4.07;;
16593;SDS011;8410;52.532;13.336;2023-09-07T14:14:17;4.50;;;3.72;;
16593;SDS011;8410;52.532;13.336;2023-09-07T14:16:45;5.07;;;3.63;;
16593;SDS011;8410;52.532;13.336;2023-09-07T14:19:12;6.30;;;3.80;;
16593;SDS011;8410;52.532;13.336;2023-09-07T14:21:40;5.38;;;3.97;;
16593;SDS011;8410;52.532;13.336;2023-09-07T14:24:08;8.82;;;4.25;;
16593;SDS011;8410;52.532;13.336;2023-09-07T14:26:37;3.83;;;3.35;;
16593;SDS011;8410;52.532;13.336;2023-09-07T14:29:04;8.77;;;3.85;;
16593;SDS011;8410;52.532;13.336;2023-09-07T14:31:32;4.13;;;3.72;;
16593;SDS011;8410;52.532;13.336;2023-09-07T14:33:59;4.45;;;3.97;;
16593;SDS011;8410;52.532;13.336;2023-09-07T14:36:27;4.20;;;3.80;;
16593;SDS011;8410;52.532;13.336;2023-09-07T14:38:54;6.70;;;4.70;;
16593;SDS011;8410;52.532;13.336;2023-09-07T14:41:22;6.50;;;3.80;;
16593;SDS011;8410;52.532;13.336;2023-09-07T14:43:51;4.63;;;4.22;;
16593;SDS011;8410;52.532;13.336;2023-09-07T14:46:19;7.25;;;4.70;;
16593;SDS011;8410;52.532;13.336;2023-09-07T14:48:48;5.00;;;3.72;;
16593;SDS011;8410;52.532;13.336;2023-09-07T14:51:16;5.20;;;4.20;;
16593;SDS011;8410;52.532;13.336;2023-09-07T14:53:44;5.55;;;4.18;;